Budapest Lorinc, Hungary

12:46 AM CET on October 31, 2014 (GMT +0100)
Budapest | Change Station
CLOSE
Current Station
Personal Weather Station
Location: Budapest, BUDAPEST
Elevation: 417 ft
Nearby Weather Stations

Elev 417 ft 47.42 °N, 19.21 °E | Updated 6 minutes ago

Patches of Fog
Patches Fog Mist
33.8 °F
Feels Like 34 °F
N
0.0
Wind Variable Wind from South
Gusts 0.0 mph

Today
High -- | Low -- °F
--% Chance of Precip.
Yesterday
High -- | Low -- °F
Precip. -- in
6:24 AM 4:28 PM
Waxing Crescent, 49% visible
Pressure 30.30 in
Visibility 0.9 miles
Clouds
Windchill 34 °F
Dew Point 32 °F
Humidity 92%
Rainfall 0.00 in
Snow Depth Not available.
UV Not available.
Pollen Not available.
Air Quality Not available.
Flu Activity Not available.
METAR LHBP 302330Z VRB01KT 1500 R13L/1500D R31R/0450N BCFG BR NSC M01/M01 Q1026 TEMPO 0600 FZFG SCT001

More Conditions Fewer Conditions

Pressure 30.30 in
Visibility 0.9 miles
Clouds
Windchill 34 °F
Dew Point 32 °F
Humidity 92%
Rainfall 0.00 in
Snow Depth Not available.
UV Not available.
Pollen Not available.
Air Quality Not available.
Flu Activity Not available.
METAR LHBP 302330Z VRB01KT 1500 R13L/1500D R31R/0450N BCFG BR NSC M01/M01 Q1026 TEMPO 0600 FZFG SCT001

More Conditions Fewer Conditions

10-Day Weather Forecast

Almanac

Astronomy

Oct. 31, 2014 Rise Set
Actual Time
Civil Twilight
Nautical Twilight
Astronomical Twilight
Moon
Length of Visible Light
Length of Day
Tomorrow will be .
, % of the Moon is Illuminated

Today's Extremes

Country Highs Country Lows

Community

WunderPhotos

Upload Photos

1,766,496 photos uploaded!

WunderBlogs® & News

Nearby

Air Quality

  Air Quality AQ Index Pollutant
Not available.

Snow Depth

Station Depth Elevation

Earthquake Activity

City Distance Mag. Time & Date
Minimum magnitude displayed is 2.5.

Coastal Water Temperatures

Place Temperature

Nearby Weather Stations